This is the latest recevied weather packets stored in our database for station/object IN3BXS. If no packets are shown the sender has not sent any weather packets the latest 10 day(s).
| Time | Temp. | Humidity | Pressure | Rain* | Wind** | Luminosity | Snow |
|---|---|---|---|---|---|---|---|
| 1777959026 | 9.44° C | 32% | 1010 hPa | 0 mm | - | - | - |
| 1777957226 | 8.89° C | 36% | 1010.4 hPa | 0 mm | - | - | - |
| 1777955426 | 7.78° C | 35% | 1010.8 hPa | 0 mm | - | - | - |
| 1777953625 | 6.67° C | 38% | 1012.4 hPa | 0 mm | - | - | - |
| 1777951825 | 7.22° C | 32% | 1012.4 hPa | 0 mm | - | - | - |
| 1777950026 | 7.22° C | 33% | 1012.3 hPa | 0 mm | - | - | - |
| 1777948226 | 7.22° C | 33% | 1012.2 hPa | 0 mm | - | - | - |
| 1777946425 | 7.22° C | 32% | 1012.2 hPa | 0 mm | - | - | - |
| 1777942825 | 8.33° C | 34% | 1012.8 hPa | 0 mm | - | - | - |
| 1777941026 | 8.33° C | 32% | 1012.8 hPa | 0 mm | - | - | - |
| 1777939225 | 8.89° C | 31% | 1013.7 hPa | 0 mm | - | - | - |
| 1777937425 | 10° C | 29% | 1013.3 hPa | 0 mm | - | - | - |
| 1777936248 | 10.56° C | 29% | 1013.1 hPa | 0 mm | - | - | - |
| 1777935625 | 10.56° C | 29% | 1013.1 hPa | 0 mm | - | - | - |
| 1777933825 | 11.11° C | 28% | 1012.8 hPa | 0 mm | - | - | - |
| 1777932025 | 12.22° C | 27% | 1012.3 hPa | 0 mm | - | - | - |
| 1777930226 | 11.11° C | 28% | 1012.8 hPa | 0 mm | - | - | - |
| 1777928426 | 11.11° C | 29% | 1012.9 hPa | 0 mm | - | - | - |
| 1777926625 | 11.11° C | 28% | 1012.8 hPa | 0 mm | - | - | - |
| 1777924826 | 11.67° C | 26% | 1012.5 hPa | 0 mm | - | - | - |
| 1777923026 | 13.33° C | 25% | 1011.7 hPa | 0 mm | - | - | - |
| 1777921225 | 14.44° C | 22% | 1011.4 hPa | 0 mm | - | - | - |
| 1777919427 | 15° C | 22% | 1011.2 hPa | 0 mm | - | - | - |
| 1777917626 | 15° C | 22% | 1011 hPa | 0 mm | - | - | - |
| 1777915825 | 15.56° C | 22% | 1010.9 hPa | 0 mm | - | - | - |
* Rain latest hour (hover to see other rain measurements)
** Current wind speed in m/s (hover to see current wind gust speed)